map of VVI home
VVI - Airport
Location
City:  Santa Cruz, Andrés Ibáñez, Santa Cruz, Bolivia
Name:Viru Viru International Airport
ICAO:SLVR
IATA:VVI

Details
Type:Airport (Aerodrome, Airfield)
Use:Public/Civil, International (customs port of entry)
Latitude:17°38'41"S (-17.644755)
Longitude:63°08'07"W (-63.135363)
Datum:WGS 1984
Elevation:1225 ft (373 m)
Variation:12.18°W (WMM2015v2 magnetic declination)
-0.20° annual change
Runways:1
Longest:11483 × 148 ft (3500 × 45 m), paved

Time
Time Zone:UTC-4
Local Time:

Weather
METAR:SLVR 041400Z 18015G26KT 9999 FEW020 SCT070 27/19 Q1018
TAF:SLVR 040950Z 0412/0512 18015KT 9999 SCT020 FEW027TCU TX33/0419Z TN22/0510Z
BECMG 0423/0501 15005KT NSC

Related Locations
Nearby:
Farthest:RPUQ: 12218 mi / 19664 km
Vigan, Luzon Island, PH

Find:

   beyond  
but within

Other Information
Maps:
NOTAMs:
Links:
Sources:

  
  • flag of Bolivia
  • flag of Santa Cruz
  

Airport Diagram

Airport diagram for VVI

Larger airport diagram (OBSOLETE) from NGA

Sectional Chart

Flight Planning
at skyvector.com

Satellite Image

Google Maps Satellite view

 

Copyright © 2004-2019 Karl L. Swartz. All rights reserved.
The Great Circle Mapper name and logo are trademarks of the Great Circle Mapper.
All other trademarks mentioned herein belong to their respective owners.
Please see credits for attibutions and further copyright information.

  Follow gcmap on Facebook Follow gcmap on Twitter GCmap on LinkedIn

hCard Microformat

Geo Microformat